Tiempo atmosférico en la estación meteorológica de Jerez de la Frontera Aeropuerto, Cádiz (27 m.)



Fecha
DESCASC
Temp. máxima en grados centígrados (hora)
DESCASC
Temp. mínima en grados centígrados (hora)
DESCASC
Temp. media en grados centígrados
DESCASC
Racha de viento máxima en m/sg (hora)
DESCASC
Velocidad máxima media en intervalos de 10 minutos(hora)
DESCASC
Precipitaciones diarias en mm
DESCASC
Precipitaciones de 00:00 a 06:00 en mm
DESCASC
Precipitaciones de 06:00 a 12:00 en mm
DESCASC
Precipitaciones de 12:00 a 18:00 en mm
DESCASC
Precipitaciones de 18:00 a 24:00 en mm
DESCASC
15-08-2019 38.8 (16:20) 18.4 (06:50) 28.6 9.72 (16:40) 5.83 (16:40) 0 0 0 0 0
14-08-2019 37.5 (16:30) 17.4 (00:00) 27.4 9.72 (17:50) 6.39 (17:10) 0 0 0 0 0
13-08-2019 36.6 (16:50) 12 (00:00) 24.3 10.28 (17:30) 5.83 (20:00) 0 0 0 0 0
12-08-2019 34.2 (17:50) 17 (00:00) 25.6 12.78 (10:10) 8.33 (20:20) 0 0 0 0 0
11-08-2019 32.3 (15:50) 15.4 (00:00) 23.8 10.83 (09:40) 7.78 (17:50) 0 0 0 0 0
10-08-2019 35.3 (15:30) 18.9 (00:00) 27.1 10.83 (20:20) 6.39 (20:00) 0 0 0 0 0
09-08-2019 33.2 (16:00) 16.7 (00:00) 25 9.72 (16:10) 6.67 (16:40) 0 0 0 0 0
08-08-2019 36.6 (15:10) 15.8 (00:00) 26.2 11.67 (15:40) 6.39 (18:40) 0 0 0 0 0
07-08-2019 34.3 (15:50) 16.5 (00:00) 25.4 9.17 (16:30) 6.39 (16:40) 0 0 0 0 0
06-08-2019 37.3 (16:10) 13.6 (00:00) 25.4 11.39 (16:40) 7.22 (16:40) 0 0 0 0 0
05-08-2019 36.7 (15:30) 15.2 (00:00) 26 10.83 (18:00) 7.5 (19:00) 0 0 0 0 0
04-08-2019 35.1 (18:00) 17.6 (00:00) 26.3 9.17 (18:30) 5.83 (18:30) 0 0 0 0 0
03-08-2019 34.3 (17:40) 15.7 (00:00) 25 8.89 (12:20) 6.39 (17:10) 0 0 0 0 0
02-08-2019 36.1 (16:30) 15.4 (00:00) 25.7 -- (--) -- (--) 0 0 0 0 0
01-08-2019 34.9 (14:50) 20.4 (00:00) 27.7 9.72 (16:20) 6.11 (16:10) 0 0 0 0 0
31-07-2019 -- (--) -- (--) -- -- (--) -- (--) -- -- -- 0 0
30-07-2019 -- (--) -- (--) -- -- (--) -- (--) -- 0 0 0 --
29-07-2019 34.3 (16:40) 17.7 (00:00) 26 9.72 (19:20) 6.67 (19:00) 0 0 0 0 0
28-07-2019 29.5 (17:30) 15.9 (00:00) 22.7 9.17 (13:30) 6.39 (18:10) 0 0 0 0 0
27-07-2019 27.8 (15:10) 18.1 (00:00) 22.9 12.5 (16:50) 8.89 (17:50) 0 0 0 0 0
26-07-2019 30.8 (16:20) 20.7 (00:00) 25.8 11.67 (17:40) 8.33 (18:30) 0 0 0 0 0
25-07-2019 32.8 (18:10) 17.9 (00:00) 25.3 -- (--) -- (--) 0 0 0 0 0
24-07-2019 35.9 (16:40) 20 (00:00) 28 7.78 (16:20) 5 (19:30) 0 0 0 0 0
23-07-2019 36.7 (15:20) 21.8 (00:00) 29.3 10.28 (14:30) 7.22 (18:00) 0 0 0 0 0
22-07-2019 37.9 (17:30) 21.9 (00:00) 29.9 9.17 (17:50) 5.83 (17:50) 0 0 0 0 0
21-07-2019 35.5 (15:20) 21.2 (00:00) 28.4 9.17 (17:20) 5.83 (18:20) 0 0 0 0 0
20-07-2019 37.4 (14:30) 19.8 (00:00) 28.6 10.83 (17:50) 6.11 (18:50) 0 0 0 0 0
19-07-2019 39.2 (16:10) 17 (00:00) 28.1 9.17 (15:10) 6.11 (18:40) 0 0 0 0 0

Gráficas

Temp. máximas Temp. mínimas Temp. medias Precipitaciones Rachas de viento máximas Velocidades máximas media en intervalos de 10 minutos

Datos horarios

Fecha y hora oficial Temperatura (ºC) Velocidad del viento (km/h) Dirección del viento Racha (km/h) Dirección de racha Precipitación (mm) Presión (hPa) Tendencia (hPa) Humedad (%)
2019-08-17 23:00:00 25.9 6 Sudoeste 13 Sudoeste 0 1010 1.6 48
2019-08-17 22:00:00 27.2 9 Sudoeste 21 Oeste 0 1009.4 0.7 45
2019-08-17 21:00:00 29.7 9 Oeste 26 Oeste 0 1008.8 0 41
2019-08-17 20:00:00 33.6 17 Oeste 28 Oeste 0 1008.4 -0.5 28
2019-08-17 19:00:00 36.5 18 Oeste 28 Oeste 0 1008.7 -0.6 25
2019-08-17 18:00:00 38.5 21 Sudoeste 30 Sudoeste 0 1008.8 -1.2 26
2019-08-17 17:00:00 39.8 18 Sudoeste 33 Sudoeste 0 1008.9 -1.8 25
2019-08-17 16:00:00 39.9 10 Oeste 24 Oeste 0 1009.3 -1.9 21
2019-08-17 15:00:00 38.6 8 Sudoeste 15 Sur 0 1010 -1.8 23
2019-08-17 14:00:00 36.8 6 Nordeste 13 Norte 0 1010.7 -1 26
2019-08-17 13:00:00 35 6 Sudoeste 13 Sur 0 1011.2 -0.6 29
2019-08-17 12:00:00 32.9 5 Sur 13 Sudoeste 0 1011.8 0.2 34
2019-08-17 11:00:00 29.7 8 Sur 11 Sur 0 1011.7 0.2 41
2019-08-17 10:00:00 25.8 3 Sur 8 Sur 0 1011.8 0.5 51
2019-08-17 09:00:00 20.8 0 Calma 5 Norte 0 1011.6 0.3 66
2019-08-17 08:00:00 17.1 0 Calma 5 Sudeste 0 1011.5 -0.1 81
2019-08-17 07:00:00 17.8 0 Calma 8 Nordeste 0 1011.3 -0.4 72
2019-08-17 06:00:00 18.1 0 Calma 8 Nordeste 0 1011.3 -0.9 73
2019-08-17 05:00:00 19 5 Este 8 Este 0 1011.6 -1 68
2019-08-17 04:00:00 18.8 4 Norte -- -- 0 1011.7 -1 77
2019-08-17 03:00:00 19.6 4 Norte 5 Norte 0 1012.2 -0.5 73
2019-08-17 02:00:00 20.3 5 Este 8 Este 0 1012.6 -0.1 70
2019-08-17 01:00:00 21.6 5 Este 8 Este 0 1012.7 0.7 71
2019-08-17 00:00:00 23.4 5 Oeste 13 Oeste 0 1012.7 1 62
2019-08-16 23:00:00 24.7 8 Noroeste 11 Oeste 0 1012.7 1.5 58
2019-08-16 22:00:00 27.7 9 Sudoeste 18 Oeste 0 1012 0.9 45
2019-08-16 21:00:00 30.9 13 Oeste 26 Oeste 0 1011.7 0.5 36
2019-08-16 20:00:00 34 15 Oeste 28 Oeste 0 1011.2 -0.3 29
2019-08-16 19:00:00 35.6 18 Oeste 30 Oeste 0 1011.1 -0.9 27
2019-08-16 18:00:00 36.5 19 Oeste 33 Oeste 0 1011.2 -1.1 28
2019-08-16 17:00:00 38.2 13 Sudoeste 24 Sudoeste 0 1011.5 -1.3 26
2019-08-16 16:00:00 38.2 14 Sudoeste 28 Sudoeste 0 1012 -1.2 25
2019-08-16 15:00:00 37.9 9 Sudoeste 22 Sur 0 1012.3 -1.4 25
2019-08-16 14:00:00 36.9 11 Sur 21 Sudoeste 0 1012.8 -0.8 28
2019-08-16 13:00:00 35.2 9 Sur 18 Sur 0 1013.2 -0.3 30
2019-08-16 12:00:00 31.8 5 Sudeste 17 Oeste 0 1013.7 0.5 37
2019-08-16 11:00:00 29.3 7 Sur 15 Sudoeste 0 1013.6 0.8 43
2019-08-16 10:00:00 26.5 5 Este 8 Este 0 1013.5 1.1 54
2019-08-16 09:00:00 21.2 4 Este 5 Este 0 1013.2 0.9 72
2019-08-16 08:00:00 18.3 0 Calma 9 Noroeste 0 1012.8 0.4 80
2019-08-16 07:00:00 18.9 8 Noroeste 13 Oeste 0 1012.4 -0.4 78
2019-08-16 06:00:00 19.1 6 Nordeste 9 Sudeste 0 1012.3 -0.8 77
2019-08-16 05:00:00 19.2 5 Este 11 Sudeste 0 1012.4 -1.1 75
2019-08-16 04:00:00 19.4 4 Este 9 Nordeste 0 1012.8 -0.8 80
2019-08-16 03:00:00 20.4 3 Sudeste 5 Sudeste 0 1013.1 -0.3 83
2019-08-16 02:00:00 21.7 0 Calma 9 Sur 0 1013.5 0.2 76
2019-08-16 01:00:00 23.2 5 Sur 9 Sur 0 1013.6 0.8 73
2019-08-16 00:00:00 24.3 9 Sur 13 Sur 0 1013.4 1.1 69
2019-08-15 23:00:00 25.4 10 Sur 17 Sudoeste 0 1013.3 1.5 66
2019-08-15 22:00:00 28.2 12 Sudoeste 21 Sudoeste 0 1012.8 1.2 52
2019-08-15 21:00:00 31.7 17 Sudoeste 24 Sudoeste 0 1012.3 0.7 41
2019-08-15 20:00:00 34.8 15 Oeste 26 Oeste 0 1011.8 0 34
2019-08-15 19:00:00 36.1 18 Oeste 28 Sudoeste 0 1011.6 -0.5 32
2019-08-15 18:00:00 37.4 17 Oeste 28 Oeste 0 1011.6 -1 32
2019-08-15 17:00:00 37.4 19 Oeste 35 Oeste 0 1011.8 -1.2 34
2019-08-15 16:00:00 38.4 9 Sudeste 17 Sur 0 1012.1 -1.5 29
2019-08-15 15:00:00 36.9 7 Sudeste 17 Sur 0 1012.6 -1.5 34
2019-08-15 14:00:00 35.9 6 Sudeste 15 Este 0 1013 -0.9 34
2019-08-15 13:00:00 34.1 6 Oeste 18 Oeste 0 1013.6 -0.3 40
2019-08-15 12:00:00 31.7 6 Noroeste 13 Oeste 0 1014.1 0.4 49
2019-08-15 11:00:00 28.8 8 Norte 15 Norte 0 1013.9 0.3 58
2019-08-15 10:00:00 26.6 8 Norte 13 Norte 0 1013.9 0.8 66
2019-08-15 09:00:00 22.5 2 Norte 9 Noroeste 0 1013.7 1 83
2019-08-15 08:00:00 19.3 6 Norte 11 Noroeste 0 1013.6 0.7 90
2019-08-15 07:00:00 18.5 9 Norte 11 Norte 0 1013.1 0 90
2019-08-15 06:00:00 19.1 5 Nordeste 9 Este 0 1012.7 -0.8 89
2019-08-15 05:00:00 18.9 4 Este 5 Este 0 1012.9 -0.8 88
2019-08-15 04:00:00 19.4 2 Este 8 Sudeste 0 1013.1 -0.9 87
2019-08-15 03:00:00 21.3 5 Sur 9 Sudeste 0 1013.5 -0.7 88
2019-08-15 02:00:00 22.4 7 Sudeste 11 Sudeste 0 1013.7 -0.3 83
2019-08-15 01:00:00 22.8 7 Sur 11 Sur 0 1014 0.7 81
2019-08-15 00:00:00 23.4 5 Sur 15 Sudoeste 0 1014.2 1.7 79
2019-08-14 23:00:00 24.9 10 Sudoeste 24 Oeste 0 1014 1.9 74
2019-08-14 22:00:00 26.9 15 Oeste 24 Oeste 0 1013.3 1.1 67
2019-08-14 21:00:00 29.4 17 Sudoeste 24 Sudoeste 0 1012.5 0.2 58
2019-08-14 20:00:00 32.1 17 Oeste 30 Oeste 0 1012.1 -0.4 49
2019-08-14 19:00:00 34.1 19 Oeste 30 Oeste 0 1012.2 -0.7 43
2019-08-14 18:00:00 35.1 19 Oeste 35 Oeste 0 1012.3 -1.2 40
2019-08-14 17:00:00 36.4 22 Oeste 32 Oeste 0 1012.5 -1.7 40
2019-08-14 16:00:00 36.7 9 Noroeste 22 Norte 0 1012.9 -1.8 35
2019-08-14 15:00:00 35.9 8 Nordeste 18 Noroeste 0 1013.5 -1.4 39
2019-08-14 14:00:00 34.5 5 Sur 21 Sudoeste 0 1014.2 -0.7 42
2019-08-14 13:00:00 32.9 6 Sudoeste 17 Oeste 0 1014.7 -0.3 48
2019-08-14 12:00:00 31.5 7 Sudoeste 15 Sur 0 1014.9 0.3 52
2019-08-14 11:00:00 29.3 4 Sur 13 Norte 0 1014.9 0.6 58
2019-08-14 10:00:00 26.7 8 Norte 13 Norte 0 1015 1.1 62
2019-08-14 09:00:00 21.6 0 Calma 5 Noroeste 0 1014.6 0.7 73
2019-08-14 08:00:00 17.7 5 Noroeste 5 Oeste 0 1014.3 0.6 79
2019-08-14 07:00:00 18 0 Calma 5 Norte 0 1013.9 -0.1 77
2019-08-14 06:00:00 18.1 0 Calma 8 Este 0 1013.9 -0.1 74
2019-08-14 05:00:00 18.6 3 Nordeste 9 Norte 0 1013.7 -0.5 73
2019-08-14 04:00:00 18.8 5 Norte 11 Norte 0 1014 -0.2 73
2019-08-14 03:00:00 19.1 7 Norte 11 Norte 0 1014 -0.3 73
2019-08-14 02:00:00 19.4 5 Este 5 Nordeste 0 1014.2 0.3 76
2019-08-14 01:00:00 21.1 0 Calma 13 Sur 0 1014.2 1.2 68
2019-08-14 00:00:00 22.8 8 Sur 13 Sur 0 1014.3 2 58
2019-08-13 23:00:00 23.6 8 Sudoeste 11 Sur 0 1013.9 1.9 52
2019-08-13 22:00:00 26.2 7 Sudoeste 15 Sudoeste 0 1013 1.3 46
2019-08-13 21:00:00 29.6 13 Sudoeste 26 Sudoeste 0 1012.3 0.6 35
2019-08-13 20:00:00 31.8 21 Sudoeste 30 Sudoeste 0 1012 0.2 34
2019-08-13 19:00:00 34.8 14 Oeste 28 Sudoeste 0 1011.7 -0.6 23
2019-08-13 18:00:00 35 16 Oeste 37 Oeste 0 1011.7 -1.1 23
2019-08-13 17:00:00 36.1 18 Oeste 30 Noroeste 0 1011.8 -1.6 19
2019-08-13 16:00:00 35.6 11 Noroeste 18 Noroeste 0 1012.3 -1.6 21
2019-08-13 15:00:00 35.1 10 Este 18 Nordeste 0 1012.8 -1.1 26
2019-08-13 14:00:00 33.4 5 Noroeste 15 Sudoeste 0 1013.4 -0.2 28
2019-08-13 13:00:00 32.1 9 Noroeste 18 Noroeste 0 1013.9 0.5 28
2019-08-13 12:00:00 28.9 4 Noroeste 15 Oeste 0 1013.9 0.8 38
2019-08-13 11:00:00 26.5 4 Sur 9 Sudoeste 0 1013.6 1 42
2019-08-13 10:00:00 21.4 4 Este 9 Sudeste 0 1013.4 1.5 51
2019-08-13 09:00:00 16.5 4 Norte 8 Norte 0 1013.1 1.3 65
2019-08-13 08:00:00 12.4 4 Este 8 Este 0 1012.6 0.9 76
2019-08-13 07:00:00 12.3 4 Este 8 Norte 0 1011.9 -0.2 79
2019-08-13 06:00:00 13 -- -- -- -- 0 1011.8 -0.4 74
2019-08-13 05:00:00 13.8 0 Calma 8 Sudeste 0 1011.7 -0.8 77
2019-08-13 04:00:00 14.8 4 Nordeste 5 Nordeste 0 1012.1 -0.5 72
2019-08-13 03:00:00 16.6 4 Norte -- -- 0 1012.2 -0.6 67
2019-08-13 02:00:00 17.6 3 Nordeste 9 Nordeste 0 1012.5 0 64
2019-08-13 01:00:00 17.8 8 Nordeste 13 Este 0 1012.6 0.9 63
2019-08-13 00:00:00 19.2 9 Este 13 Este 0 1012.8 1.5 59
2019-08-12 23:00:00 22.4 5 Oeste 17 Noroeste 0 1012.5 1.9 49
2019-08-12 22:00:00 23 10 Oeste 32 Oeste 0 1011.7 1.1 47
2019-08-12 21:00:00 24.3 25 Oeste 42 Oeste 0 1011.3 0.6 43
2019-08-12 20:00:00 28.1 28 Oeste 42 Oeste 0 1010.6 -0.6 34
2019-08-12 19:00:00 31.4 26 Oeste 39 Oeste 0 1010.6 -1.5 22
2019-08-12 18:00:00 33.6 18 Noroeste 39 Noroeste 0 1010.7 -2.1 17
2019-08-12 17:00:00 33.6 28 Noroeste 39 Noroeste 0 1011.2 -2.1 15
2019-08-12 16:00:00 33.2 21 Noroeste 35 Noroeste 0 1012.1 -1.6 14
2019-08-12 15:00:00 31.8 18 Noroeste 32 Noroeste 0 1012.8 -1 20
2019-08-12 14:00:00 30.8 17 Norte 30 Norte 0 1013.3 -0.3 24
2019-08-12 13:00:00 29.3 18 Norte 37 Norte 0 1013.7 0.3 29
2019-08-12 12:00:00 26.8 21 Norte 39 Norte 0 1013.8 0.5 37
2019-08-12 11:00:00 24.4 23 Norte 46 Norte 0 1013.6 0.7 41
2019-08-12 10:00:00 21.7 20 Norte 30 Norte 0 1013.4 0.7 48
2019-08-12 09:00:00 18.9 11 Noroeste 15 Norte 0 1013.3 0.6 56
2019-08-12 08:00:00 17.2 12 Noroeste 21 Noroeste 0 1012.9 0.2 59
2019-08-12 07:00:00 17.8 17 Noroeste 22 Noroeste 0 1012.7 -0.2 55
2019-08-12 06:00:00 17.1 8 Norte 21 Noroeste 0 1012.7 -0.8 56
2019-08-12 05:00:00 18.7 15 Noroeste 28 Noroeste 0 1012.7 -1.3 50
2019-08-12 04:00:00 19.5 18 Noroeste 28 Noroeste 0 1012.9 -1.2 48
2019-08-12 03:00:00 17.2 12 Noroeste 17 Noroeste 0 1013.5 -0.5 53
2019-08-12 02:00:00 19.8 8 Noroeste 13 Norte 0 1014 0.3 45
2019-08-12 01:00:00 19.4 4 Norte 17 Oeste 0 1014.1 0.8 49
2019-08-12 00:00:00 21.8 12 Noroeste 24 Oeste 0 1014 1.2 46
2019-08-11 23:00:00 23.2 14 Oeste 24 Oeste 0 1013.7 1.2 49
2019-08-11 22:00:00 24 8 Sudoeste 28 Oeste 0 1013.3 0.6 50
2019-08-11 21:00:00 26.5 16 Oeste 30 Sudoeste 0 1012.8 -0.1 41
2019-08-11 20:00:00 27.4 14 Oeste 33 Oeste 0 1012.5 -0.7 39
2019-08-11 19:00:00 29.4 22 Oeste 35 Oeste 0 1012.7 -1 32
2019-08-11 18:00:00 29.2 23 Oeste 37 Oeste 0 1012.9 -1.4 32
2019-08-11 17:00:00 30.8 16 Oeste 32 Oeste 0 1013.2 -1.7 26
2019-08-11 16:00:00 31.9 20 Oeste 32 Oeste 0 1013.7 -1.6 26
2019-08-11 15:00:00 31.7 15 Oeste 28 Oeste 0 1014.3 -1 23
2019-08-11 14:00:00 30.2 14 Noroeste 32 Norte 0 1014.9 0 27
2019-08-11 13:00:00 29.6 12 Noroeste 30 Norte 0 1015.3 0.6 31
2019-08-11 12:00:00 27.7 13 Noroeste 26 Noroeste 0 1015.3 0.8 38
2019-08-11 11:00:00 25.8 15 Norte 32 Norte 0 1014.9 0.9 40
2019-08-11 10:00:00 23 20 Noroeste 39 Noroeste 0 1014.7 1 49
2019-08-11 09:00:00 19.8 12 Norte 17 Norte 0 1014.5 1 61
2019-08-11 08:00:00 16.6 7 Norte 17 Noroeste 0 1014 0.6 74
2019-08-11 07:00:00 15.6 3 Nordeste 13 Noroeste 0 1013.7 0.4 80
2019-08-11 06:00:00 15.7 4 Norte 9 Noroeste 0 1013.5 -0.2 82
2019-08-11 05:00:00 16.8 2 Este 13 Noroeste 0 1013.4 -0.5 79
2019-08-11 04:00:00 17 4 Norte 11 Norte 0 1013.3 -1 81
2019-08-11 03:00:00 18 3 Este 11 Este 0 1013.7 -0.3 83
2019-08-11 02:00:00 19.6 8 Noroeste 11 Noroeste 0 1013.9 -0.2 81
2019-08-11 01:00:00 20.5 8 Sur 15 Sur 0 1014.3 0.7 79
2019-08-11 00:00:00 21.5 9 Sur 15 Sudeste 0 1014 1.1 67
2019-08-10 23:00:00 22.8 9 Sur 17 Sudoeste 0 1014.1 1.8 61
2019-08-10 22:00:00 23.8 13 Sudoeste 26 Oeste 0 1013.6 1.3 55
2019-08-10 21:00:00 26.5 21 Oeste 39 Oeste 0 1012.9 0.5 47
2019-08-10 20:00:00 29.7 23 Oeste 32 Sudoeste 0 1012.3 -0.6 41
2019-08-10 19:00:00 31.8 21 Oeste 33 Oeste 0 1012.3 -1.2 40
2019-08-10 18:00:00 33.2 21 Oeste 32 Oeste 0 1012.4 -1.7 40
2019-08-10 17:00:00 33.8 19 Oeste 30 Noroeste 0 1012.9 -1.8 40
2019-08-10 16:00:00 34.5 21 Oeste 33 Oeste 0 1013.5 -1.6 41
2019-08-10 15:00:00 34.3 8 Oeste 24 Oeste 0 1014.1 -1.4 41
2019-08-10 14:00:00 33.4 8 Sudoeste 22 Norte 0 1014.7 -0.7 44
2019-08-10 13:00:00 32.2 12 Noroeste 22 Noroeste 0 1015.1 0 48
2019-08-10 12:00:00 29.8 5 Norte 11 Nordeste 0 1015.5 0.8 59
2019-08-10 11:00:00 27 8 Noroeste 26 Noroeste 0 1015.4 0.9 68
2019-08-10 10:00:00 24.5 4 Noroeste 30 Oeste 0 1015.1 0.6 77
2019-08-10 09:00:00 21.6 7 Norte 11 Noroeste 0 1014.7 -0.2 93
2019-08-10 08:00:00 19.4 6 Norte 11 Norte 0 1014.5 -0.2 97
2019-08-10 07:00:00 19.6 4 Norte 8 Norte 0 1014.5 -0.6 94
2019-08-10 06:00:00 20.8 5 Sur 11 Sur 0 1014.9 -0.4 96
2019-08-10 05:00:00 21.1 2 Sur 9 Sur 0 1014.7 -0.8 95
2019-08-10 04:00:00 21.5 6 Sur 13 Sur 0 1015.1 -0.3 95
2019-08-10 03:00:00 21.8 9 Sur 15 Sur 0 1015.3 0 93
2019-08-10 02:00:00 22.1 11 Sur 15 Sur 0 1015.5 0.6 93
2019-08-10 01:00:00 22.4 9 Sur 15 Sudoeste 0 1015.4 1.5 90
2019-08-10 00:00:00 23 10 Sudoeste 17 Sudoeste 0 1015.3 1.9 87
2019-08-09 23:00:00 23.6 11 Sudoeste 17 Sudoeste 0 1014.9 1.8 85
2019-08-09 22:00:00 24.9 15 Sudoeste 26 Sudoeste 0 1013.9 0.7 78
2019-08-09 21:00:00 26.2 14 Oeste 28 Oeste 0 1013.4 0 73
2019-08-09 20:00:00 27.2 17 Oeste 32 Sudoeste 0 1013.1 -0.7 71
2019-08-09 19:00:00 28.6 23 Oeste 33 Oeste 0 1013.2 -0.8 64
2019-08-09 18:00:00 29.7 21 Oeste 35 Sudoeste 0 1013.4 -0.9 59
2019-08-09 17:00:00 31.2 23 Oeste 35 Sudoeste 0 1013.8 -0.8 52
2019-08-09 16:00:00 32.8 20 Sudoeste 32 Oeste 0 1014 -0.7 40
2019-08-09 15:00:00 32 15 Oeste 30 Oeste 0 1014.3 -0.4 45
2019-08-09 14:00:00 31.5 12 Oeste 24 Oeste 0 1014.6 0.2 47
2019-08-09 13:00:00 30.6 12 Oeste 32 Oeste 0 1014.7 0.3 53
2019-08-09 12:00:00 28.5 10 Sudoeste 18 Sudoeste 0 1014.7 0.4 63
2019-08-09 11:00:00 25.8 6 Sudoeste 13 Sudoeste 0 1014.4 0.6 74
2019-08-09 10:00:00 22.5 3 Sur 9 Sudeste 0 1014.4 0.9 90
2019-08-09 09:00:00 20 4 Sudeste 9 Este 0 1014.3 1 92
2019-08-09 08:00:00 17 5 Nordeste 5 Nordeste 0 1013.8 0.4 95
2019-08-09 07:00:00 17.3 0 Calma 2 Sudoeste 0 1013.5 0.2 93
2019-08-09 06:00:00 17.6 0 Calma 8 Sur 0 1013.3 0.1 92
2019-08-09 05:00:00 18.3 6 Sudeste 9 Sudeste 0 1013.4 0.1 93
2019-08-09 04:00:00 18.8 5 Sudeste 9 Sur 0 1013.3 0.2 90
2019-08-09 03:00:00 20.2 8 Sudeste 11 Sudeste 0 1013.2 0.2 91
2019-08-09 02:00:00 20.6 8 Sur 11 Sur 0 1013.3 1 89
2019-08-09 01:00:00 21.2 8 Sur 13 Sur 0 1013.1 1.9 84
2019-08-09 00:00:00 21.7 9 Sudoeste 15 Oeste 0 1013 2.6 79
2019-08-08 23:00:00 23 12 Oeste 24 Oeste 0 1012.3 2.2 76
2019-08-08 22:00:00 24.8 13 Oeste 26 Oeste 0 1011.2 1.1 66
2019-08-08 21:00:00 27.9 10 Oeste 30 Oeste 0 1010.4 0.2 50
2019-08-08 20:00:00 31.1 21 Oeste 30 Oeste 0 1010.1 -0.3 38
2019-08-08 19:00:00 33.3 21 Oeste 30 Oeste 0 1010.1 -0.4 33
2019-08-08 18:00:00 34.7 19 Oeste 28 Oeste 0 1010.2 -0.6 29
2019-08-08 17:00:00 35.3 19 Oeste 33 Sudoeste 0 1010.4 -0.8 29
2019-08-08 16:00:00 36.1 16 Oeste 42 Oeste 0 1010.5 -1.2 33
2019-08-08 15:00:00 35.6 5 Oeste 28 Oeste 0 1010.8 -1.2 28
2019-08-08 14:00:00 34.1 9 Sur 18 Sur 0 1011.2 -0.5 34
2019-08-08 13:00:00 32.4 4 Oeste 11 Sur 0 1011.7 0.2 41
2019-08-08 12:00:00 29.2 6 Sur 13 Sur 0 1012 0.6 54
2019-08-08 11:00:00 26.3 7 Sur 13 Sur 0 1011.7 0.5 64
2019-08-08 10:00:00 23.3 7 Sur 13 Sudeste 0 1011.5 0.5 81
2019-08-08 09:00:00 19.7 0 Calma 5 Norte 0 1011.4 0.6 84
2019-08-08 08:00:00 16.2 3 Norte 5 Norte 0 1011.2 0.1 93
2019-08-08 07:00:00 16.2 4 Nordeste 5 Nordeste 0 1011 -0.3 93
2019-08-08 06:00:00 16.8 3 Norte 9 Este 0 1010.8 -0.9 93
2019-08-08 05:00:00 17.7 6 Este 8 Este 0 1011.1 -0.8 90
2019-08-08 04:00:00 18.7 5 Este 9 Sur 0 1011.3 -1 89
2019-08-08 03:00:00 20.1 6 Sur 11 Sur 0 1011.7 0 87
2019-08-08 02:00:00 20.9 7 Sur 11 Sur 0 1011.9 0.3 80
2019-08-08 01:00:00 22 6 Sur 17 Sudeste 0 1012.3 1.4 75
2019-08-08 00:00:00 22.9 10 Sur 13 Sur 0 1011.7 1.4 72
2019-08-07 23:00:00 23.9 4 Oeste 21 Oeste 0 1011.6 1.8 68
2019-08-07 22:00:00 24.7 12 Oeste 21 Oeste 0 1010.9 1.1 68
2019-08-07 21:00:00 26.3 12 Oeste 30 Oeste 0 1010.3 0.4 61
2019-08-07 20:00:00 28.1 17 Oeste 32 Oeste 0 1009.8 -0.4 53
2019-08-07 19:00:00 30.5 18 Oeste 30 Oeste 0 1009.8 -0.5 43
2019-08-07 18:00:00 31.8 18 Oeste 28 Oeste 0 1009.9 -0.5 36
2019-08-07 17:00:00 32 17 Oeste 33 Oeste 0 1010.2 -0.6 35
2019-08-07 16:00:00 33 19 Oeste 30 Oeste 0 1010.3 -1.2 35
2019-08-07 15:00:00 33.8 13 Oeste 26 Oeste 0 1010.4 -0.9 36
2019-08-07 14:00:00 32.3 9 Oeste 22 Sur 0 1010.8 -0.4 47
2019-08-07 13:00:00 29.9 9 Sudoeste 18 Sur 0 1011.5 0.4 56
2019-08-07 12:00:00 27.7 10 Sur 18 Sur 0 1011.3 0.9 65
2019-08-07 11:00:00 24.8 10 Sur 21 Sur 0 1011.2 1.1 75
2019-08-07 10:00:00 22 12 Sudeste 18 Sur 0 1011.1 1.4 87
2019-08-07 09:00:00 20.4 9 Sur 15 Sudoeste 0 1010.4 0.8 96
2019-08-07 08:00:00 19.7 8 Sudeste 13 Sudeste 0 1010.1 0.5 98
2019-08-07 07:00:00 19.5 8 Sur 13 Sudeste 0 1009.7 0.1 97
2019-08-07 06:00:00 17.2 3 Sudeste 8 Sudeste 0 1009.6 -0.4 94
2019-08-07 05:00:00 16.8 2 Sur 5 Sudeste 0 1009.6 -0.4 90
2019-08-07 04:00:00 17.6 6 Sudeste 8 Sudeste 0 1009.6 -1 89
2019-08-07 03:00:00 17.7 3 Sudeste 11 Sur 0 1010 -0.6 86
2019-08-07 02:00:00 18.6 4 Sur 13 Sur 0 1010 -0.1 86
2019-08-07 01:00:00 20.3 5 Sur 15 Sudeste 0 1010.6 1.4 83
2019-08-07 00:00:00 21.4 9 Sur 13 Sur 0 1010.6 1.9 79
2019-08-06 23:00:00 22.1 8 Sudeste 13 Sur 0 1010.1 2.1 65
2019-08-06 22:00:00 24.5 9 Sur 21 Sudoeste 0 1009.2 1.2 53
2019-08-06 21:00:00 27.7 11 Oeste 32 Oeste 0 1008.7 0.2 44
2019-08-06 20:00:00 29.6 19 Oeste 32 Oeste 0 1008 -0.7 42
2019-08-06 19:00:00 32.7 14 Oeste 32 Oeste 0 1008 -1.2 34
2019-08-06 18:00:00 33.4 21 Oeste 33 Oeste 0 1008.5 -1.3 30
2019-08-06 17:00:00 34.3 24 Oeste 41 Oeste 0 1008.7 -1.7 32
2019-08-06 16:00:00 36.8 14 Oeste 24 Sudoeste 0 1009.2 -1.7 22
2019-08-06 15:00:00 34.6 7 Sudoeste 17 Sur 0 1009.8 -1.7 30
2019-08-06 14:00:00 32.4 7 Sur 17 Sur 0 1010.4 -1.4 39
2019-08-06 13:00:00 29.9 7 Este 13 Este 0 1010.9 -0.8 46
2019-08-06 12:00:00 26.9 6 Sur 13 Sur 0 1011.5 0.3 62
2019-08-06 11:00:00 22.7 3 Sur 9 Sur 0 1011.8 0.9 78
2019-08-06 10:00:00 18.5 3 Sudeste 9 Sur 0 1011.7 1.1 97
2019-08-06 09:00:00 17.6 4 Sur 11 Sur 0 1011.2 0.3 97
2019-08-06 08:00:00 15.3 8 Sur 13 Sur 0 1010.9 -0.4 93
2019-08-06 07:00:00 14.1 3 Este -- -- 0 1010.6 -0.7 92
2019-08-06 06:00:00 14.2 5 Este 8 Este 0 1010.9 -0.4 90
2019-08-06 05:00:00 15.1 0 Calma 9 Este 0 1011.3 -0.5 89
2019-08-06 04:00:00 15.4 3 Este 5 Este 0 1011.3 -0.5 88
2019-08-06 03:00:00 16.5 4 Sudeste 9 Este 0 1011.3 -0.3 85
2019-08-06 02:00:00 18 3 Este 11 Sudeste 0 1011.8 0.6 81
2019-08-06 01:00:00 19.7 5 Sur 13 Sudeste 0 1011.8 1.4 81
2019-08-06 00:00:00 20.4 10 Sudeste 21 Sur 0 1011.6 1.8 77
2019-08-05 23:00:00 22.2 8 Sur 17 Sudoeste 0 1011.2 1.8 64
2019-08-05 22:00:00 25.5 15 Sudoeste 21 Sudoeste 0 1010.4 0.7 46
2019-08-05 21:00:00 28.4 14 Sudoeste 28 Oeste 0 1009.8 0.1 39
2019-08-05 20:00:00 30.3 17 Oeste 33 Oeste 0 1009.4 -0.2 37
2019-08-05 19:00:00 31.3 27 Oeste 35 Sudoeste 0 1009.7 0 33
2019-08-05 18:00:00 33 27 Oeste 39 Oeste 0 1009.7 -0.3 29
2019-08-05 17:00:00 35.1 23 Oeste 33 Oeste 0 1009.6 -0.9 27
2019-08-05 16:00:00 36.2 20 Oeste 32 Oeste 0 1009.7 -1.6 25
2019-08-05 15:00:00 36.3 12 Oeste 22 Noroeste 0 1010 -1.5 28
2019-08-05 14:00:00 34.2 8 Noroeste 21 Oeste 0 1010.5 -1.2 35
2019-08-05 13:00:00 31.8 4 Sudoeste 15 Sudoeste 0 1011.3 -0.4 44
2019-08-05 12:00:00 28.9 5 Sudoeste 13 Sur 0 1011.5 -0.3 53
2019-08-05 11:00:00 26 8 Sudoeste 13 Sur 0 1011.7 0.2 67
2019-08-05 10:00:00 23.3 8 Sur 13 Sudeste 0 1011.7 0.7 77
2019-08-05 09:00:00 20 3 Sudeste -- -- 0 1011.8 0.9 82
2019-08-05 08:00:00 15.6 5 Este -- -- 0 1011.5 0.3 88
2019-08-05 07:00:00 15.8 7 Sudeste 9 Sudeste 0 1011 -0.2 90
2019-08-05 06:00:00 16 0 Calma 5 Sudoeste 0 1010.9 -0.4 87
2019-08-05 05:00:00 16.6 2 Sudeste 5 Sudeste 0 1011.2 -0.5 85
2019-08-05 04:00:00 17.5 0 Calma 8 Este 0 1011.2 -0.6 82
2019-08-05 03:00:00 17.8 5 Este 8 Este 0 1011.3 -0.6 80
2019-08-05 02:00:00 19.1 4 Norte 9 Este 0 1011.7 0 76
2019-08-05 01:00:00 19.9 4 Este 8 Este 0 1011.8 1 73
2019-08-05 00:00:00 21.8 6 Sur 11 Sur 0 1011.9 1.4 68
2019-08-04 23:00:00 23.8 7 Sur 9 Sur 0 1011.7 1.5 62
2019-08-04 22:00:00 25.8 5 Oeste 18 Oeste 0 1010.8 0.7 55
2019-08-04 21:00:00 28.6 14 Oeste 24 Sudoeste 0 1010.5 0.5 48
2019-08-04 20:00:00 30.9 18 Sudoeste 28 Sudoeste 0 1010.2 0.1 44
2019-08-04 19:00:00 32.8 19 Sudoeste 33 Sudoeste 0 1010.1 -0.7 39
2019-08-04 18:00:00 34.7 17 Sudoeste 30 Oeste 0 1010 -1.2 34
2019-08-04 17:00:00 34.2 17 Sudoeste 30 Sudoeste 0 1010.1 -1.5 36
2019-08-04 16:00:00 33.5 17 Sudoeste 30 Sudoeste 0 1010.8 -1.3 42
2019-08-04 15:00:00 32.6 17 Sudoeste 30 Sudoeste 0 1011.2 -1.2 47
2019-08-04 14:00:00 31.7 13 Sur 24 Sudoeste 0 1011.6 -1 44
2019-08-04 13:00:00 29.9 9 Sudoeste 18 Sudoeste 0 1012.1 -0.5 50
2019-08-04 12:00:00 27 9 Sudoeste 24 Sudoeste 0 1012.4 0 62
2019-08-04 11:00:00 24.6 11 Sur 21 Sur 0 1012.6 0.5 73
2019-08-04 10:00:00 21.4 10 Sur 18 Sur 0 1012.6 0.8 87
2019-08-04 09:00:00 20 11 Sur 15 Sur 0 1012.4 0.8 95
2019-08-04 08:00:00 19 12 Sur 18 Sur 0 1012.1 0.3 98
2019-08-04 07:00:00 18.2 6 Sur 9 Sur 0 1011.8 0 94
2019-08-04 06:00:00 18.8 8 Sur 11 Sur 0 1011.6 -0.1 93
2019-08-04 05:00:00 19.4 5 Sur 13 Sudeste 0 1011.8 0 91
2019-08-04 04:00:00 20 9 Sudeste 15 Sudeste 0 1011.8 0.2 92
2019-08-04 03:00:00 20.3 4 Sur 13 Sur 0 1011.7 0.1 90
2019-08-04 02:00:00 20.8 8 Sur 13 Sur 0 1011.8 0.4 88
2019-08-04 01:00:00 21.3 8 Sur 13 Sudeste 0 1011.6 1.1 82
2019-08-04 00:00:00 22.1 10 Sudoeste 13 Oeste 0 1011.6 1.8 77
2019-08-03 23:00:00 23.4 7 Sur 17 Sudoeste 0 1011.4 1.9 64
2019-08-03 22:00:00 25.5 10 Oeste 18 Oeste 0 1010.5 0.9 53
2019-08-03 21:00:00 28.8 11 Oeste 22 Oeste 0 1009.8 0 40
2019-08-03 20:00:00 31.8 15 Oeste 24 Oeste 0 1009.5 -0.8 28
2019-08-03 19:00:00 33.3 15 Oeste 28 Sudoeste 0 1009.6 -1.4 21
2019-08-03 18:00:00 33.9 19 Oeste 30 Oeste 0 1009.8 -1.5 22
2019-08-03 17:00:00 33.5 22 Sudoeste 30 Sudoeste 0 1010.3 -1.4 21
2019-08-03 16:00:00 32.4 19 Sudoeste 32 Sur 0 1011 -0.9 32
2019-08-03 15:00:00 30.9 17 Sudoeste 30 Sudoeste 0 1011.3 -0.6 45
2019-08-03 14:00:00 30.1 14 Sudoeste 32 Sudoeste 0 1011.7 -0.2 50
2019-08-03 13:00:00 28.5 18 Sur 32 Sudoeste 0 1011.9 0.2 57
2019-08-03 12:00:00 27.5 17 Sudoeste 26 Sudoeste 0 1011.9 0.6 63
2019-08-03 11:00:00 24.6 13 Sur 22 Sur 0 1011.9 0.9 73
2019-08-03 10:00:00 20.9 9 Sur 24 Sur 0 1011.7 1.2 86
2019-08-03 09:00:00 19.3 11 Sur 17 Sur 0 1011.3 0.9 90
2019-08-03 08:00:00 16.7 2 Sur 8 Sudeste 0 1011 0.2 94
2019-08-03 07:00:00 16.3 5 Sudeste 8 Sudeste 0 1010.5 -0.3 94
2019-08-03 06:00:00 17.1 8 Sudeste 9 Sudeste 0 1010.4 -0.6 88
2019-08-03 05:00:00 18.1 5 Sur 11 Sur 0 1010.8 -0.4 83
2019-08-03 04:00:00 17.9 8 Sur 11 Sur 0 1010.8 -0.2 81
2019-08-03 03:00:00 17.6 5 Sur 8 Sur 0 1011 0.1 74
2019-08-03 02:00:00 18.5 5 Sur 8 Sur 0 1011.2 0.4 72
2019-08-03 01:00:00 18.6 4 Este 8 Nordeste 0 1011 0.8 73
2019-08-03 00:00:00 20.6 3 Sudeste 9 Oeste 0 1010.9 0.9 65
2019-08-02 23:00:00 23.3 8 Oeste 15 Noroeste 0 1010.8 0.9 56
2019-08-02 22:00:00 25.8 8 Oeste 18 Oeste 0 1010.2 0.2 43
2019-08-02 21:00:00 29.1 13 Oeste 28 Sudoeste 0 1010 -0.2 34
2019-08-02 20:00:00 31.7 16 Oeste 28 Oeste 0 1009.9 -0.5 24
2019-08-02 19:00:00 32.8 19 Oeste 35 Oeste 0 1010 -0.7 23
2019-08-02 18:00:00 33.9 25 Oeste 39 Oeste 0 1010.2 -0.7 22
2019-08-02 17:00:00 35 23 Oeste 35 Oeste 0 1010.4 -0.6 23
2019-08-02 16:00:00 35.3 20 Sudoeste 32 Sudoeste 0 1010.7 -0.6 25
2019-08-02 15:00:00 35.2 19 Oeste 32 Oeste 0 1010.9 -0.6 29
2019-08-02 14:00:00 34.8 9 Oeste 37 Sudoeste 0 1011 -0.8 29
2019-08-02 13:00:00 32.7 6 Sur 15 Sur 0 1011.3 -0.2 38
2019-08-02 12:00:00 29.5 6 Sudoeste 15 Sur 0 1011.5 0.2 48
2019-08-02 11:00:00 26.3 8 Sur 15 Sur 0 1011.8 0.8 62
2019-08-02 10:00:00 23.6 7 Sur 11 Sur 0 1011.5 0.7 74
2019-08-02 09:00:00 19.9 0 Calma 5 Este 0 1011.3 0.8 78
2019-08-02 08:00:00 15.8 5 Este 9 Este 0 1011 0.4 86
2019-08-02 07:00:00 15.7 5 Este 8 Este 0 1010.8 0.2 87
2019-08-02 06:00:00 16.3 5 Este 8 Este 0 1010.5 -0.3 86
2019-08-02 05:00:00 17 2 Este -- -- 0 1010.6 -0.5 81
2019-08-02 04:00:00 17.5 -- -- -- -- 0 1010.6 -0.4 84
2019-08-02 03:00:00 18.5 0 Calma 9 Norte 0 1010.8 -0.2 80
2019-08-02 02:00:00 19.1 5 Este 9 Este 0 1011.1 0.8 78
2019-08-02 01:00:00 20.1 6 Este 9 Este 0 1011 1.1 74
2019-08-02 00:00:00 22 6 Sudeste 9 Sudeste 0 1011 1.7 68
2019-08-01 23:00:00 23.5 4 Noroeste 17 Noroeste 0 1010.3 1.7 63
2019-08-01 22:00:00 25.3 13 Oeste 26 Oeste 0 1009.9 1.6 63
2019-08-01 21:00:00 28.2 18 Oeste 32 Oeste 0 1009.3 0.8 59
2019-08-01 20:00:00 32.1 20 Oeste 30 Sudoeste 0 1008.6 -0.2 41
2019-08-01 19:00:00 33.3 18 Oeste 28 Oeste 0 1008.3 -0.7 37
2019-08-01 18:00:00 33.2 20 Oeste 32 Oeste 0 1008.5 -0.8 44
2019-08-01 17:00:00 33.5 20 Oeste 35 Sudoeste 0 1008.8 -1 45
2019-08-01 16:00:00 34.4 21 Oeste 33 Oeste 0 1009 -1.1 43
2019-08-01 15:00:00 34.5 8 Este 18 Sudeste 0 1009.3 -1 41
2019-08-01 14:00:00 33.8 7 Este 15 Sudeste 0 1009.8 -0.3 43
2019-08-01 13:00:00 32.3 6 Este 15 Sudoeste 0 1010.1 0 48
2019-08-01 12:00:00 30.8 6 Noroeste 13 Norte 0 1010.3 0.7 55
2019-08-01 11:00:00 29 6 Noroeste 11 Noroeste 0 1010.1 0.9 61
2019-08-01 10:00:00 26.8 4 Noroeste 9 Noroeste 0 1010.1 1.2 68
2019-08-01 09:00:00 23.5 5 Norte -- -- 0 1009.6 0.6 77
2019-08-01 08:00:00 20.5 4 Norte 9 Este 0 1009.2 0.1 88
2019-08-01 07:00:00 20.8 8 Este -- -- 0 1008.9 -0.4 87
2019-08-01 06:00:00 20.8 6 Este 9 Este 0 1009 -0.5 86
2019-08-01 05:00:00 21.9 2 Sudeste 11 Oeste 0 1009.1 -0.4 84
2019-08-01 04:00:00 22.1 7 Noroeste 13 Noroeste 0 1009.3 -0.1 83
2019-08-01 03:00:00 23.7 12 Noroeste 18 Oeste 0 1009.5 0.5 78
2019-08-01 02:00:00 24.1 11 Oeste 17 Noroeste 0 1009.5 1 77
2019-08-01 01:00:00 24.9 8 Sudoeste 13 Sudoeste 0 1009.4 1.4 73
2019-08-01 00:00:00 25.3 9 Sudoeste 22 Sur 0 1009 1.8 74
2019-07-31 23:00:00 26.7 13 Sur 30 Sur 0 1008.5 1.9 69
2019-07-31 22:00:00 27.7 14 Sudoeste 22 Sur 0 1008 1.5 62
2019-07-31 21:00:00 29.9 14 Oeste 26 Sudoeste 0 1007.2 0.4 54
2019-07-31 20:00:00 31.9 13 Oeste 24 Sur 0 1006.6 -0.5 48
2019-07-31 19:00:00 33.8 13 Sudeste 26 Sur 0 1006.5 -1.1 40
2019-07-31 18:00:00 34.3 17 Sur 32 Sur 0 1006.8 -1.2 42
2019-07-31 17:00:00 34.2 17 Sur 33 Sur 0 1007.1 -1.1 43
2019-07-31 16:00:00 34.5 19 Sur 30 Sur 0 1007.6 -1.1 42
2019-07-31 15:00:00 33.9 15 Sur 26 Sudeste 0 1008 -1.1 42
2019-07-31 14:00:00 33.8 14 Sur 26 Sudeste 0 1008.2 -1 41
2019-07-31 13:00:00 33.4 11 Sudeste 21 Sur 0 1008.7 -0.3 37
2019-07-31 12:00:00 31.6 6 Este 17 Este 0 1009.1 -- 40
2019-07-31 11:00:00 29.6 5 Sur 9 Sudeste 0 1009.2 -- 45
2019-07-31 10:00:00 26 4 Norte 9 Norte 0 1009 -- 52
2019-07-31 09:00:00 -- -- -- -- -- -- -- -- --
2019-07-31 08:00:00 -- -- -- -- -- -- -- -- --
2019-07-31 07:00:00 -- -- -- -- -- -- -- -- --
2019-07-31 06:00:00 -- -- -- -- -- -- -- -- --
2019-07-31 05:00:00 -- -- -- -- -- -- -- -- --
2019-07-31 04:00:00 -- -- -- -- -- -- -- -- --
2019-07-31 03:00:00 -- -- -- -- -- -- -- -- --
2019-07-31 02:00:00 -- -- -- -- -- -- -- -- --
2019-07-31 01:00:00 -- -- -- -- -- -- -- -- --
2019-07-31 00:00:00 -- -- -- -- -- -- -- -- --
2019-07-30 23:00:00 -- -- -- -- -- -- -- -- --
2019-07-30 22:00:00 27.6 16 Oeste 24 Oeste 0 1007.2 0.1 36
2019-07-30 21:00:00 31.8 15 Oeste 30 Oeste 0 1007 -0.6 22
2019-07-30 20:00:00 34.1 19 Oeste 32 Oeste 0 1007 -1.3 19
2019-07-30 19:00:00 35.5 19 Noroeste 35 Noroeste 0 1007.1 -1.6 19
2019-07-30 18:00:00 36.3 19 Noroeste 42 Noroeste 0 1007.6 -1.7 19
2019-07-30 17:00:00 35.8 13 Noroeste 33 Noroeste 0 1008.3 -1.7 21
2019-07-30 16:00:00 35.2 18 Noroeste 37 Norte 0 1008.7 -1.8 24
2019-07-30 15:00:00 34.3 17 Noroeste 32 Norte 0 1009.3 -1.4 26
2019-07-30 14:00:00 33 15 Norte 30 Noroeste 0 1010 -0.6 28
2019-07-30 13:00:00 30.9 17 Norte 28 Noroeste 0 1010.5 -0.3 31
2019-07-30 12:00:00 29.7 18 Norte 28 Norte 0 1010.7 -0.1 33
2019-07-30 11:00:00 27.4 17 Norte 26 Norte 0 1010.6 0.1 37
2019-07-30 10:00:00 23.8 16 Norte 33 Noroeste 0 1010.8 0.2 47
2019-07-30 09:00:00 20 10 Norte 15 Norte 0 1010.8 0.4 59
2019-07-30 08:00:00 16.4 12 Noroeste 15 Norte 0 1010.5 0.2 70
2019-07-30 07:00:00 16.4 6 Norte 15 Noroeste 0 1010.6 0.4 68
2019-07-30 06:00:00 16.2 6 Norte 15 Norte 0 1010.4 0.1 70
2019-07-30 05:00:00 16.9 12 Norte 15 Norte 0 1010.3 0 71
2019-07-30 04:00:00 16.7 9 Norte 11 Norte 0 1010.2 0 77
2019-07-30 03:00:00 17.4 3 Norte 8 Noroeste 0 1010.3 0.1 82
2019-07-30 02:00:00 18.3 5 Norte 8 Norte 0 1010.3 0.4 82
2019-07-30 01:00:00 19.6 4 Nordeste 8 Este 0 1010.2 1 80
2019-07-30 00:00:00 21.3 3 Este 9 Sudeste 0 1010.2 1.3 74
2019-07-29 23:00:00 23.9 9 Sur 15 Oeste 0 1009.9 1.1 66
2019-07-29 22:00:00 25.4 13 Oeste 24 Sudoeste 0 1009.2 0.5 61
2019-07-29 21:00:00 27.4 17 Oeste 28 Oeste 0 1008.9 0 55
2019-07-29 20:00:00 29.7 21 Oeste 35 Sudoeste 0 1008.8 -0.1 48
2019-07-29 19:00:00 31.8 24 Oeste 33 Oeste 0 1008.7 -0.5 42
2019-07-29 18:00:00 32.9 20 Oeste 32 Oeste 0 1008.9 -0.6 32
2019-07-29 17:00:00 33.4 18 Oeste 30 Oeste 0 1008.9 -1 33
2019-07-29 16:00:00 33 16 Sudoeste 33 Sudoeste 0 1009.2 -1.3 35
2019-07-29 15:00:00 32.3 12 Sudoeste 28 Sudoeste 0 1009.5 -0.9 41
2019-07-29 14:00:00 31.5 10 Sudoeste 26 Sudoeste 0 1009.9 -0.6 44
2019-07-29 13:00:00 29.4 8 Sudoeste 22 Sur 0 1010.5 0 52
2019-07-29 12:00:00 27.2 8 Sur 18 Sudeste 0 1010.4 0.3 63
2019-07-29 11:00:00 25.1 7 Este 17 Sur 0 1010.5 1 71
2019-07-29 10:00:00 22.2 9 Sur 15 Sur 0 1010.5 1.4 85
2019-07-29 09:00:00 20.5 6 Sudeste 9 Sudeste 0 1010.1 1.3 91
2019-07-29 08:00:00 19.3 3 Sudeste 8 Sudeste 0 1009.5 0.8 94
2019-07-29 07:00:00 17.9 0 Calma 9 Sudeste 0 1009.1 0.3 95
2019-07-29 06:00:00 18.5 5 Sur 11 Sur 0 1008.8 -0.3 94
2019-07-29 05:00:00 18.5 6 Sur 11 Sur 0 1008.7 -0.3 94
2019-07-29 04:00:00 18.7 6 Sur 11 Sudeste 0 1008.8 -0.5 91
2019-07-29 03:00:00 19.1 7 Sur 13 Sudeste 0 1009.1 -0.1 90
2019-07-29 02:00:00 19.4 11 Sudeste 17 Sudeste 0 1009 -0.1 88
2019-07-29 01:00:00 19.6 9 Sur 13 Sur 0 1009.3 0.9 88
2019-07-29 00:00:00 20.2 8 Sur 11 Sur 0 1009.2 1.3 86
2019-07-28 23:00:00 21.2 11 Sudoeste 21 Sudoeste 0 1009.1 1.8 79
2019-07-28 22:00:00 22.5 14 Sudoeste 22 Sudoeste 0 1008.4 1.2 74
2019-07-28 21:00:00 24.5 16 Sudoeste 30 Sudoeste 0 1007.9 0.7 61
2019-07-28 20:00:00 26.3 21 Sudoeste 28 Sudoeste 0 1007.3 -0.1 57
2019-07-28 19:00:00 27.7 18 Sudoeste 32 Sudoeste 0 1007.2 -0.7 53
2019-07-28 18:00:00 28.3 22 Sudoeste 32 Sudoeste 0 1007.2 -1 52
2019-07-28 17:00:00 28.6 14 Sudoeste 30 Sudoeste 0 1007.4 -1.1 51
2019-07-28 16:00:00 28.4 15 Sudoeste 28 Sudoeste 0 1007.9 -0.9 51
2019-07-28 15:00:00 28.1 15 Sur 28 Sudoeste 0 1008.2 -0.6 52
2019-07-28 14:00:00 26.7 16 Sudoeste 33 Oeste 0 1008.5 -0.5 57
2019-07-28 13:00:00 26 7 Sudoeste 21 Sudoeste 0 1008.8 -0.1 57
2019-07-28 12:00:00 25.3 5 Sudoeste 21 Sudoeste 0 1008.8 -0.2 59
2019-07-28 11:00:00 23.7 7 Sudoeste 15 Sudoeste 0 1009 0.1 66
2019-07-28 10:00:00 21.7 8 Oeste 15 Oeste 0 1008.9 0.3 75
2019-07-28 09:00:00 19.7 3 Nordeste 8 Nordeste 0 1009 0.5 83
2019-07-28 08:00:00 16.4 5 Norte 8 Norte 0 1008.9 0.2 92
2019-07-28 07:00:00 17.7 4 Sur 8 Sur 0 1008.6 -0.2 87
2019-07-28 06:00:00 18.7 6 Sur 9 Sudoeste 0 1008.5 -0.7 89
2019-07-28 05:00:00 18.9 6 Sudoeste 9 Sudoeste 0 1008.7 -0.9 88
2019-07-28 04:00:00 19.4 8 Sur 17 Sudoeste 0 1008.8 -1.2 88
2019-07-28 03:00:00 19.9 11 Sudoeste 17 Sur 0 1009.2 -0.9 86
2019-07-28 02:00:00 20.8 12 Sudoeste 24 Sudoeste 0 1009.6 -0.6 82
2019-07-28 01:00:00 21.6 17 Sudoeste 26 Sudoeste 0 1010 0.5 80
2019-07-28 00:00:00 21.4 14 Sudoeste 21 Sudoeste 0 1010.1 0.9 84
2019-07-27 23:00:00 21.9 13 Sudoeste 26 Sudoeste 0 1010.2 0.9 84
2019-07-26 12:00:00 27.3 20 Oeste 30 Oeste 0 1012.7 0.5 49
2019-07-26 11:00:00 25.9 12 Oeste 24 Oeste 0 1012.4 0.5 61
2019-07-26 10:00:00 24.5 12 Oeste 22 Oeste 0 1012.5 0.9 68
2019-07-26 09:00:00 22.5 8 Oeste 18 Oeste 0 1012.2 0.8 77
2019-07-26 08:00:00 21.5 11 Sur 15 Sur 0 1011.9 0.4 92
2019-07-26 07:00:00 20.9 7 Sur 15 Sur 0 1011.6 -0.1 93
2019-07-26 06:00:00 21.2 8 Sur 15 Sur 0 1011.4 -0.6 92
2019-07-26 05:00:00 20.9 8 Sur 13 Sur 0 1011.5 -0.7 94
2019-07-26 04:00:00 20.8 9 Sur 15 Sur 0 1011.7 -0.5 93
2019-07-26 03:00:00 21 11 Sur 18 Sur 0 1012 0 93
2019-07-26 02:00:00 20.9 11 Sur 17 Sur 0 1012.2 0.8 92
2019-07-26 01:00:00 21.3 10 Sur 15 Sur 0 1012.2 1.2 89
2019-07-26 00:00:00 22.1 9 Sur 17 Sur 0 1012 1.3 86
2019-07-25 23:00:00 22.9 10 Sur 22 Sudoeste 0 1011.4 1.1 79
2019-07-25 22:00:00 24.2 12 Sudoeste 24 Oeste 0 1011 1 72
2019-07-25 21:00:00 26.6 17 Sudoeste 30 Sudoeste 0 1010.7 0.5 67
2019-07-25 20:00:00 28.6 21 Sudoeste 32 Sudoeste 0 1010.3 -0.4 61
2019-07-25 19:00:00 31.3 23 Sudoeste 33 Sudoeste 0 1010 -0.9 53
2019-07-25 18:00:00 32.3 18 Sudoeste 33 Sur 0 1010.2 -0.9 47
2019-07-25 17:00:00 31 24 Sudoeste 35 Sudoeste 0 1010.7 -0.5 55
2019-07-25 16:00:00 30.6 24 Sudoeste 35 Sudoeste 0 1010.9 -0.4 58
2019-07-25 15:00:00 31.1 21 Sudoeste 32 Sudoeste 0 1011.1 -0.3 57
2019-07-25 14:00:00 31.9 18 Sudoeste 30 Sudoeste 0 1011.2 -0.2 54
2019-07-25 13:00:00 31.1 11 Sur 18 Sudoeste 0 1011.3 0.1 53
2019-07-25 12:00:00 29.1 6 Sudoeste 18 Sur 0 1011.4 0.5 60
2019-07-25 11:00:00 27.2 13 Sur 21 Sur 0 1011.4 0.6 70
2019-07-25 10:00:00 25.1 9 Sur 13 Sur 0 1011.2 0.8 81
2019-07-25 09:00:00 21.7 0 Calma -- -- 0 1010.9 0.7 90
2019-07-25 08:00:00 18.4 0 Calma -- -- 0 1010.8 0.3 94
2019-07-25 07:00:00 18.2 6 Este 8 Este 0 1010.4 -0.1 94
2019-07-25 06:00:00 18.4 5 Norte -- -- 0 1010.2 -0.6 94
2019-07-25 05:00:00 19.2 6 Este 8 Este 0 1010.5 -0.5 95
2019-07-25 04:00:00 19.3 3 Este 8 Este 0 1010.5 -0.6 94
2019-07-25 03:00:00 19.8 4 Nordeste -- -- 0 1010.8 -0.2 93
2019-07-25 02:00:00 21.2 2 Este 8 Sudeste 0 1011 0.6 90
2019-07-25 01:00:00 22.5 7 Noroeste 11 Noroeste 0 1011.1 1.5 90
2019-07-25 00:00:00 23.9 9 Noroeste 13 Oeste 0 1011 2 86
2019-07-24 23:00:00 25.1 6 Oeste 18 Oeste 0 1010.4 1.8 74
2019-07-24 22:00:00 26.9 10 Oeste 21 Oeste 0 1009.6 1.2 69
2019-07-24 21:00:00 29.4 15 Sudoeste 24 Sudoeste 0 1009 0.1 62
2019-07-24 20:00:00 31.6 15 Oeste 26 Oeste 0 1008.6 -0.8 57
2019-07-24 19:00:00 33.7 15 Sudoeste 26 Sudoeste 0 1008.4 -1.4 49
2019-07-24 18:00:00 34.6 13 Sudoeste 26 Sudoeste 0 1008.9 -1.3 46
2019-07-24 17:00:00 35.4 16 Sudoeste 28 Sur 0 1009.4 -1.3 43
2019-07-24 16:00:00 35.5 15 Sudoeste 26 Sudoeste 0 1009.8 -1 41
2019-07-24 15:00:00 34.7 7 Sudeste 22 Sur 0 1010.2 -1 43
2019-07-24 14:00:00 33.7 13 Sudoeste 24 Sudoeste 0 1010.7 -0.6 49
2019-07-24 13:00:00 33.4 12 Sur 24 Sur 0 1010.8 -0.3 49
2019-07-24 12:00:00 31.6 5 Norte 15 Norte 0 1011.2 0.4 52
2019-07-24 11:00:00 29.7 3 Sudeste 15 Sur 0 1011.3 0.7 56
2019-07-24 10:00:00 27 8 Sur 13 Sudeste 0 1011.1 0.7 71
2019-07-24 09:00:00 23.8 3 Este 5 Nordeste 0 1010.8 0.1 85
2019-07-24 08:00:00 20.5 0 Calma 8 Este 0 1010.6 -0.5 93
2019-07-24 07:00:00 20.2 5 Este 8 Este 0 1010.4 -1.1 93
2019-07-24 06:00:00 20.8 4 Este -- -- 0 1010.7 -1.2 92
2019-07-24 05:00:00 21.1 0 Calma 5 Sudeste 0 1011.1 -0.7 91
2019-07-24 04:00:00 21.3 3 Este 9 Sur 0 1011.5 -0.4 91
2019-07-24 03:00:00 22.2 0 Calma 11 Nordeste 0 1011.9 0 90
2019-07-24 02:00:00 21.9 6 Nordeste 8 Nordeste 0 1011.8 0 91
2019-07-24 01:00:00 23.2 2 Este 8 Sudeste 0 1011.9 1 88
2019-07-24 00:00:00 24.7 5 Oeste 13 Oeste 0 1011.9 1.7 83
2019-07-23 23:00:00 24.9 9 Oeste 17 Oeste 0 1011.8 1.9 83
2019-07-23 22:00:00 25.9 10 Oeste 21 Oeste 0 1010.9 1 80
2019-07-23 21:00:00 29.1 14 Oeste 24 Sudoeste 0 1010.2 -0.2 65
2019-07-23 20:00:00 30.9 19 Sudoeste 26 Oeste 0 1009.9 -0.6 58
2019-07-23 19:00:00 31.9 20 Sudoeste 32 Sudoeste 0 1009.9 -0.7 55
2019-07-23 18:00:00 32.8 26 Sudoeste 33 Sudoeste 0 1010.4 -0.5 53
2019-07-23 17:00:00 34.4 23 Sudoeste 33 Sudoeste 0 1010.5 -0.7 48
2019-07-23 16:00:00 36 19 Sudoeste 35 Sudoeste 0 1010.6 -1.2 41
2019-07-23 15:00:00 36.3 16 Sur 37 Sur 0 1010.9 -0.9 36
2019-07-23 14:00:00 35.3 12 Sur 21 Sur 0 1011.2 -0.8 39
2019-07-23 13:00:00 33.9 11 Sur 21 Sur 0 1011.8 -0.2 44
2019-07-23 12:00:00 32 7 Sudoeste 15 Oeste 0 1011.8 -0.1 50
2019-07-23 11:00:00 30.1 5 Oeste 13 Oeste 0 1012 0.3 57
2019-07-23 10:00:00 28.4 4 Sur 11 Sur 0 1012 0.4 61
2019-07-23 09:00:00 25 6 Noroeste 9 Noroeste 0 1011.9 0.3 76
2019-07-23 08:00:00 22.2 0 Calma 5 Sudoeste 0 1011.7 -0.1 88
2019-07-23 07:00:00 21.9 3 Este 9 Nordeste 0 1011.6 -0.5 88
2019-07-23 06:00:00 22.7 0 Calma -- -- 0 1011.6 -0.5 84
2019-07-23 05:00:00 23 5 Norte 13 Norte 0 1011.8 -0.2 86
2019-07-23 04:00:00 23.6 6 Nordeste 13 Este 0 1012.1 -0.1 83
2019-07-23 03:00:00 24.1 7 Norte 13 Sudeste 0 1012.1 0.1 77
2019-07-23 02:00:00 26 6 Sudeste 18 Este 0 1012 0 69
2019-07-23 01:00:00 26.9 13 Sur 28 Este 0 1012.2 0.9 66
2019-07-23 00:00:00 26 6 Sur 21 Sur 0 1012 1.5 71
2019-07-22 23:00:00 27.2 12 Sur 21 Sur 0 1012 2 67
2019-07-22 22:00:00 29.3 10 Sudeste 18 Sudeste 0 1011.3 1.3 56
2019-07-22 21:00:00 32.3 10 Sudoeste 26 Noroeste 0 1010.5 0 48
2019-07-22 20:00:00 34.8 15 Oeste 24 Sur 0 1010 -1.3 44
2019-07-22 19:00:00 37.1 14 Sur 28 Sudeste 0 1010 -1.9 34
2019-07-22 18:00:00 37.7 17 Sudeste 33 Sudeste 0 1010.5 -2.2 31
2019-07-22 17:00:00 37.4 14 Sur 30 Sudeste 0 1011.3 -1.9 33
2019-07-22 16:00:00 36.9 10 Sudeste 24 Este 0 1011.9 -1.8 37
2019-07-22 15:00:00 35.5 8 Sur 22 Sudeste 0 1012.7 -1.4 42
2019-07-22 14:00:00 34.6 11 Sudeste 24 Sudeste 0 1013.2 -0.9 45
2019-07-22 13:00:00 33.5 9 Sudeste 18 Sudeste 0 1013.7 -0.6 49
2019-07-22 12:00:00 32 6 Este 18 Nordeste 0 1014.1 0.1 53
2019-07-22 11:00:00 30.6 5 Sur 13 Sur 0 1014.1 0.2 58
2019-07-22 10:00:00 28.1 5 Nordeste 9 Este 0 1014.3 0.9 65
2019-07-22 09:00:00 25.1 4 Nordeste 9 Nordeste 0 1014 0.5 74
2019-07-22 08:00:00 22.2 4 Sur 9 Nordeste 0 1013.9 0.1 84
2019-07-22 07:00:00 22.3 5 Norte -- -- 0 1013.4 -0.6 83
2019-07-22 06:00:00 22.7 8 Norte 17 Norte 0 1013.5 -0.4 84
2019-07-22 05:00:00 23.7 10 Norte 13 Norte 0 1013.8 -0.1 83
2019-07-22 04:00:00 25.2 8 Sudeste 15 Sudeste 0 1014 -0.2 79
2019-07-22 03:00:00 25.4 7 Sudeste 17 Sudeste 0 1013.9 -0.5 76
2019-07-22 02:00:00 26.4 11 Sudeste 22 Sudeste 0 1013.9 -0.2 71
2019-07-22 01:00:00 26.7 13 Sudeste 26 Sudeste 0 1014.2 1.1 69
2019-07-22 00:00:00 26.4 16 Sur 26 Sur 0 1014.4 2.2 66
2019-07-21 23:00:00 26.5 12 Sur 18 Sur 0 1014.1 2.5 69
2019-07-21 22:00:00 28.2 10 Sudoeste 17 Oeste 0 1013.1 1.5 61
2019-07-21 21:00:00 30.2 13 Sudoeste 22 Oeste 0 1012.2 0.3 57
2019-07-21 20:00:00 32.3 13 Sudoeste 28 Sudoeste 0 1011.6 -0.7 53
2019-07-21 19:00:00 33.6 16 Oeste 28 Sudoeste 0 1011.6 -1.1 50
2019-07-21 18:00:00 34.5 19 Sudoeste 33 Sudoeste 0 1011.9 -1.1 48
2019-07-21 17:00:00 34.9 18 Sudoeste 26 Sudoeste 0 1012.3 -1.1 47
2019-07-21 16:00:00 34.8 15 Sudoeste 26 Sudoeste 0 1012.7 -1.2 48
2019-07-21 15:00:00 34.9 13 Sur 22 Sur 0 1013 -0.8 47
2019-07-21 14:00:00 33.4 11 Sur 28 Sur 0 1013.4 -0.4 50
2019-07-21 13:00:00 31.7 13 Sur 26 Sur 0 1013.9 0.3 57
2019-07-21 12:00:00 29.1 15 Sur 26 Sudoeste 0 1013.8 0.5 66
2019-07-21 11:00:00 27.1 14 Sur 24 Sur 0 1013.8 0.8 72
2019-07-21 10:00:00 25.3 13 Sur 21 Sudeste 0 1013.6 1 78
2019-07-21 09:00:00 23.4 7 Sur 15 Sur 0 1013.3 0.8 86
2019-07-21 08:00:00 21.2 5 Sudeste 15 Sur 0 1013 0.6 91
2019-07-21 07:00:00 21.6 11 Sur 15 Sur 0 1012.6 0.1 88
2019-07-21 06:00:00 22.4 12 Sur 17 Sur 0 1012.5 -0.3 79
2019-07-21 05:00:00 23.1 8 Sur 17 Sur 0 1012.4 -0.3 75
2019-07-21 04:00:00 23.9 9 Sur 15 Sur 0 1012.5 0 76
2019-07-21 03:00:00 23.7 12 Sur 17 Sur 0 1012.8 0.5 73
2019-07-21 02:00:00 23.2 12 Sur 15 Sur 0 1012.7 0.9 76
2019-07-21 01:00:00 23.8 6 Sur 13 Sur 0 1012.5 1.6 79
2019-07-21 00:00:00 24.6 9 Sur 13 Sur 0 1012.3 2.4 77
2019-07-20 23:00:00 25.8 9 Sur 18 Sudoeste 0 1011.8 2.4 64
2019-07-20 22:00:00 28.4 13 Sudoeste 22 Oeste 0 1010.9 1.6 48
2019-07-20 21:00:00 31.2 16 Sudoeste 24 Sudoeste 0 1009.9 0.6 37
2019-07-20 20:00:00 33.7 18 Oeste 30 Oeste 0 1009.4 0.1 32
2019-07-20 19:00:00 34.5 21 Oeste 35 Oeste 0 1009.3 -0.1 29
2019-07-20 18:00:00 35 18 Oeste 39 Oeste 0 1009.3 -0.4 32
2019-07-20 17:00:00 35.8 18 Oeste 30 Oeste 0 1009.3 -0.8 32
2019-07-20 16:00:00 36.3 19 Oeste 30 Oeste 0 1009.4 -0.9 33
2019-07-20 15:00:00 36.4 12 Oeste 26 Oeste 0 1009.7 -0.8 34
2019-07-20 14:00:00 35.8 5 Noroeste 21 Sudoeste 0 1010.1 -0.4 33
2019-07-20 13:00:00 33.5 6 Sur 21 Sur 0 1010.3 -0.3 39
2019-07-20 12:00:00 31.3 5 Oeste 13 Sur 0 1010.5 0.3 45
2019-07-20 11:00:00 29.1 5 Oeste 13 Noroeste 0 1010.5 0.7 51
2019-07-20 10:00:00 26.2 3 Nordeste 9 Noroeste 0 1010.6 1.2 65
2019-07-20 09:00:00 22.9 2 Este 8 Sudoeste 0 1010.2 1.3 71
2019-07-20 08:00:00 20 0 Calma 5 Sudeste 0 1009.8 1.1 78
2019-07-20 07:00:00 20.7 6 Norte 13 Noroeste 0 1009.4 0.7 75
2019-07-20 06:00:00 20 5 Nordeste 11 Nordeste 0 1008.9 0 81
2019-07-20 05:00:00 21 4 Sudeste 11 Noroeste 0 1008.7 -0.3 76
2019-07-20 04:00:00 21.8 8 Noroeste 13 Noroeste 0 1008.7 -0.4 71
2019-07-20 03:00:00 22.1 6 Noroeste 8 Noroeste 0 1008.9 -0.1 73
2019-07-20 02:00:00 23.1 0 Calma 9 Sur 0 1009 0.7 71
2019-07-20 01:00:00 23.2 6 Nordeste 9 Nordeste 0 1009.1 1.5 72
2019-07-20 00:00:00 25.3 8 Noroeste 13 Noroeste 0 1009 1.9 59
2019-07-19 23:00:00 27.1 6 Oeste 15 Oeste 0 1008.3 1.7 52
2019-07-19 22:00:00 28.1 12 Oeste 22 Sudoeste 0 1007.6 1 51
2019-07-19 21:00:00 31 16 Oeste 26 Sur 0 1007.1 0.3 42
2019-07-19 20:00:00 33.7 18 Sudoeste 26 Sudoeste 0 1006.6 0 37
2019-07-19 19:00:00 34.9 19 Sur 33 Sudoeste 0 1006.6 -0.1 35
2019-07-19 18:00:00 36.5 20 Sudoeste 33 Sudoeste 0 1006.8 -0.6 30
2019-07-19 17:00:00 38.7 17 Sudoeste 33 Sudoeste 0 1006.6 -1.6 26
2019-07-19 16:00:00 38.6 10 Sudeste 33 Sudeste 0 1006.7 -2.2 25
2019-07-19 15:00:00 37.1 8 Nordeste 22 Norte 0 1007.4 -1.9 28
2019-07-19 14:00:00 35.8 10 Norte 21 Norte 0 1008.2 -1.3 30
2019-07-19 13:00:00 33.9 6 Norte 18 Norte 0 1008.9 -0.7 35
2019-07-19 12:00:00 32.1 8 Norte 15 Noroeste 0 1009.3 -0.2 41
2019-07-19 11:00:00 28.8 6 Norte 13 Norte 0 1009.5 0.2 52
2019-07-19 10:00:00 25.2 4 Sudeste 9 Sur 0 1009.6 0.1 58
2019-07-19 09:00:00 21.6 2 Sudeste 8 Sudeste 0 1009.5 0.1 75
2019-07-19 08:00:00 17.6 4 Nordeste 5 Norte 0 1009.3 0 90
2019-07-19 07:00:00 17.1 5 Este 8 Nordeste 0 1009.5 0 92
2019-07-19 06:00:00 18.3 3 Sudeste 5 Sur 0 1009.4 -0.3 89
2019-07-19 05:00:00 18.9 4 Nordeste 9 Este 0 1009.3 -1 88
2019-07-19 04:00:00 19.4 0 Calma 5 Este 0 1009.5 -0.9 88
2019-07-19 03:00:00 20 4 Este 8 Este 0 1009.7 -0.6 85
2019-07-19 02:00:00 20.2 6 Norte 9 Norte 0 1010.3 0.4 87
2019-07-19 01:00:00 21.9 0 Calma 8 Oeste 0 1010.4 1.1 80
2019-07-19 00:00:00 22.9 4 Oeste 11 Sudoeste 0 1010.3 1.5 76